sensor_id;sensor_type;location;lat;lon;timestamp;pressure;altitude;pressure_sealevel;temperature;humidity
51297;BME280;37380;45.186;9.792;2023-01-06T00:01:35;101932.34;;;7.90;100.00
51297;BME280;37380;45.186;9.792;2023-01-06T00:04:02;101936.78;;;7.91;100.00
51297;BME280;37380;45.186;9.792;2023-01-06T00:06:36;101938.16;;;8.00;100.00
51297;BME280;37380;45.186;9.792;2023-01-06T00:09:30;101890.56;;;7.74;100.00
51297;BME280;37380;45.186;9.792;2023-01-06T00:12:33;101890.06;;;7.80;100.00
51297;BME280;37380;45.186;9.792;2023-01-06T00:15:19;101935.56;;;7.86;100.00
51297;BME280;37380;45.186;9.792;2023-01-06T00:17:46;101922.06;;;7.79;100.00
51297;BME280;37380;45.186;9.792;2023-01-06T00:20:13;101892.25;;;7.60;100.00
51297;BME280;37380;45.186;9.792;2023-01-06T00:22:41;101920.97;;;7.75;100.00
51297;BME280;37380;45.186;9.792;2023-01-06T00:25:08;101901.75;;;7.60;100.00
51297;BME280;37380;45.186;9.792;2023-01-06T00:27:44;101936.88;;;7.80;100.00
51297;BME280;37380;45.186;9.792;2023-01-06T00:30:45;101904.16;;;7.70;100.00
51297;BME280;37380;45.186;9.792;2023-01-06T00:33:40;101936.06;;;7.81;100.00
51297;BME280;37380;45.186;9.792;2023-01-06T00:36:09;101928.94;;;7.65;100.00
51297;BME280;37380;45.186;9.792;2023-01-06T00:38:37;101838.19;;;7.03;100.00
51297;BME280;37380;45.186;9.792;2023-01-06T00:41:12;101886.53;;;7.39;100.00
51297;BME280;37380;45.186;9.792;2023-01-06T00:43:58;101914.75;;;7.60;100.00
51297;BME280;37380;45.186;9.792;2023-01-06T00:46:27;101936.06;;;7.67;100.00
51297;BME280;37380;45.186;9.792;2023-01-06T00:48:56;101897.31;;;7.32;100.00
51297;BME280;37380;45.186;9.792;2023-01-06T00:51:35;101860.19;;;7.08;100.00
51297;BME280;37380;45.186;9.792;2023-01-06T00:54:03;101950.97;;;7.70;100.00
51297;BME280;37380;45.186;9.792;2023-01-06T00:56:31;101908.16;;;7.52;100.00
51297;BME280;37380;45.186;9.792;2023-01-06T00:58:58;101901.81;;;7.35;100.00
51297;BME280;37380;45.186;9.792;2023-01-06T01:01:35;101855.81;;;7.07;100.00
51297;BME280;37380;45.186;9.792;2023-01-06T01:04:36;101922.75;;;7.36;100.00
51297;BME280;37380;45.186;9.792;2023-01-06T01:07:21;101928.34;;;7.42;100.00
51297;BME280;37380;45.186;9.792;2023-01-06T01:09:55;101881.72;;;7.19;100.00
51297;BME280;37380;45.186;9.792;2023-01-06T01:12:51;101937.38;;;7.74;100.00
51297;BME280;37380;45.186;9.792;2023-01-06T01:15:18;101900.53;;;7.41;100.00
51297;BME280;37380;45.186;9.792;2023-01-06T01:17:45;101868.44;;;7.28;100.00
51297;BME280;37380;45.186;9.792;2023-01-06T01:20:12;101907.13;;;7.49;100.00
51297;BME280;37380;45.186;9.792;2023-01-06T01:22:39;101945.97;;;7.73;100.00
51297;BME280;37380;45.186;9.792;2023-01-06T01:25:07;101924.34;;;7.61;100.00
51297;BME280;37380;45.186;9.792;2023-01-06T01:27:41;101867.31;;;7.37;100.00
51297;BME280;37380;45.186;9.792;2023-01-06T01:30:35;101931.38;;;7.75;100.00
51297;BME280;37380;45.186;9.792;2023-01-06T01:33:02;101959.19;;;7.76;100.00
51297;BME280;37380;45.186;9.792;2023-01-06T01:35:29;101930.66;;;7.64;100.00
51297;BME280;37380;45.186;9.792;2023-01-06T01:37:56;101927.56;;;7.57;100.00
51297;BME280;37380;45.186;9.792;2023-01-06T01:40:23;101866.28;;;7.09;100.00
51297;BME280;37380;45.186;9.792;2023-01-06T01:42:50;101961.47;;;7.58;100.00
51297;BME280;37380;45.186;9.792;2023-01-06T01:45:24;101950.94;;;7.43;100.00
51297;BME280;37380;45.186;9.792;2023-01-06T01:48:06;101926.63;;;7.43;100.00
51297;BME280;37380;45.186;9.792;2023-01-06T01:51:13;101868.19;;;7.11;100.00
51297;BME280;37380;45.186;9.792;2023-01-06T01:54:21;101960.00;;;7.75;100.00
51297;BME280;37380;45.186;9.792;2023-01-06T01:57:11;101811.31;;;7.02;100.00
51297;BME280;37380;45.186;9.792;2023-01-06T02:00:08;101942.75;;;7.64;100.00
51297;BME280;37380;45.186;9.792;2023-01-06T02:02:39;101952.59;;;7.68;100.00
51297;BME280;37380;45.186;9.792;2023-01-06T02:05:10;101927.34;;;7.67;100.00
51297;BME280;37380;45.186;9.792;2023-01-06T02:07:44;101941.38;;;7.82;100.00
51297;BME280;37380;45.186;9.792;2023-01-06T02:10:45;101935.78;;;7.63;100.00
51297;BME280;37380;45.186;9.792;2023-01-06T02:13:42;101922.44;;;7.58;100.00
51297;BME280;37380;45.186;9.792;2023-01-06T02:16:31;101896.94;;;7.39;100.00
51297;BME280;37380;45.186;9.792;2023-01-06T02:44:13;101945.75;;;7.70;100.00
51297;BME280;37380;45.186;9.792;2023-01-06T02:52:24;101935.84;;;7.64;100.00
51297;BME280;37380;45.186;9.792;2023-01-06T02:55:43;101934.38;;;7.68;100.00
51297;BME280;37380;45.186;9.792;2023-01-06T02:58:54;101931.75;;;7.55;100.00
51297;BME280;37380;45.186;9.792;2023-01-06T03:01:27;101905.91;;;7.44;100.00
51297;BME280;37380;45.186;9.792;2023-01-06T03:04:01;101938.66;;;7.54;100.00
51297;BME280;37380;45.186;9.792;2023-01-06T03:06:33;101925.75;;;7.56;100.00
51297;BME280;37380;45.186;9.792;2023-01-06T03:09:02;101913.22;;;7.50;100.00
51297;BME280;37380;45.186;9.792;2023-01-06T03:12:23;101904.53;;;7.49;100.00
51297;BME280;37380;45.186;9.792;2023-01-06T03:14:55;101943.97;;;7.69;100.00
51297;BME280;37380;45.186;9.792;2023-01-06T03:17:24;101864.69;;;7.24;100.00
51297;BME280;37380;45.186;9.792;2023-01-06T03:19:52;101854.72;;;7.17;100.00
51297;BME280;37380;45.186;9.792;2023-01-06T03:22:23;101936.56;;;7.62;100.00
51297;BME280;37380;45.186;9.792;2023-01-06T03:24:51;101888.53;;;7.43;100.00
51297;BME280;37380;45.186;9.792;2023-01-06T03:27:24;101927.78;;;7.60;100.00
51297;BME280;37380;45.186;9.792;2023-01-06T03:30:09;101891.34;;;7.33;100.00
51297;BME280;37380;45.186;9.792;2023-01-06T03:38:04;101891.34;;;7.33;100.00
51297;BME280;37380;45.186;9.792;2023-01-06T03:43:22;101931.25;;;7.74;100.00
51297;BME280;37380;45.186;9.792;2023-01-06T03:46:14;101935.47;;;7.71;100.00
51297;BME280;37380;45.186;9.792;2023-01-06T03:49:22;101917.16;;;7.57;100.00
51297;BME280;37380;45.186;9.792;2023-01-06T03:52:02;101929.38;;;7.71;100.00
51297;BME280;37380;45.186;9.792;2023-01-06T03:54:40;101874.31;;;7.38;100.00
51297;BME280;37380;45.186;9.792;2023-01-06T03:57:14;101933.16;;;7.76;100.00
51297;BME280;37380;45.186;9.792;2023-01-06T03:59:48;101916.97;;;7.54;100.00
51297;BME280;37380;45.186;9.792;2023-01-06T04:02:23;101860.44;;;7.24;100.00
51297;BME280;37380;45.186;9.792;2023-01-06T04:05:30;101933.06;;;7.75;100.00
51297;BME280;37380;45.186;9.792;2023-01-06T04:08:25;101933.78;;;7.72;100.00
51297;BME280;37380;45.186;9.792;2023-01-06T04:10:58;101864.94;;;7.40;100.00
51297;BME280;37380;45.186;9.792;2023-01-06T04:13:52;101885.16;;;7.71;100.00
51297;BME280;37380;45.186;9.792;2023-01-06T04:16:20;101879.41;;;7.50;100.00
51297;BME280;37380;45.186;9.792;2023-01-06T04:18:47;101861.22;;;7.37;100.00
51297;BME280;37380;45.186;9.792;2023-01-06T04:21:16;101895.75;;;7.61;100.00
51297;BME280;37380;45.186;9.792;2023-01-06T04:23:43;101888.56;;;7.57;100.00
51297;BME280;37380;45.186;9.792;2023-01-06T04:26:10;101901.47;;;7.68;100.00
51297;BME280;37380;45.186;9.792;2023-01-06T04:28:44;101858.91;;;7.41;100.00
51297;BME280;37380;45.186;9.792;2023-01-06T04:31:11;101895.75;;;7.61;100.00
51297;BME280;37380;45.186;9.792;2023-01-06T04:33:39;101882.53;;;7.58;100.00
51297;BME280;37380;45.186;9.792;2023-01-06T04:36:09;101891.16;;;7.57;100.00
51297;BME280;37380;45.186;9.792;2023-01-06T04:38:39;101892.66;;;7.80;100.00
51297;BME280;37380;45.186;9.792;2023-01-06T04:41:12;101936.38;;;7.85;100.00
51297;BME280;37380;45.186;9.792;2023-01-06T04:44:07;101939.59;;;7.68;100.00
51297;BME280;37380;45.186;9.792;2023-01-06T04:46:35;101904.44;;;7.48;100.00
51297;BME280;37380;45.186;9.792;2023-01-06T04:49:02;101873.28;;;7.10;100.00
51297;BME280;37380;45.186;9.792;2023-01-06T04:51:31;101858.28;;;7.06;100.00
51297;BME280;37380;45.186;9.792;2023-01-06T04:53:58;101942.38;;;7.71;100.00
51297;BME280;37380;45.186;9.792;2023-01-06T04:56:25;101950.78;;;7.67;100.00
51297;BME280;37380;45.186;9.792;2023-01-06T04:58:54;101956.16;;;7.70;100.00
51297;BME280;37380;45.186;9.792;2023-01-06T05:01:22;101883.91;;;7.26;100.00
51297;BME280;37380;45.186;9.792;2023-01-06T05:03:49;101958.28;;;7.76;100.00
51297;BME280;37380;45.186;9.792;2023-01-06T05:06:16;101895.00;;;7.23;100.00
51297;BME280;37380;45.186;9.792;2023-01-06T05:08:44;101949.47;;;7.74;100.00
51297;BME280;37380;45.186;9.792;2023-01-06T05:11:22;101944.47;;;7.63;100.00
51297;BME280;37380;45.186;9.792;2023-01-06T05:14:23;101959.09;;;7.75;100.00
51297;BME280;37380;45.186;9.792;2023-01-06T05:17:17;101955.78;;;7.77;100.00
51297;BME280;37380;45.186;9.792;2023-01-06T05:19:44;101878.00;;;7.29;100.00
51297;BME280;37380;45.186;9.792;2023-01-06T05:22:12;101880.22;;;7.22;100.00
51297;BME280;37380;45.186;9.792;2023-01-06T05:24:38;101944.75;;;7.55;100.00
51297;BME280;37380;45.186;9.792;2023-01-06T05:27:06;101874.28;;;7.12;100.00
51297;BME280;37380;45.186;9.792;2023-01-06T05:29:33;101878.31;;;7.20;100.00
51297;BME280;37380;45.186;9.792;2023-01-06T05:32:00;101958.56;;;7.67;100.00
51297;BME280;37380;45.186;9.792;2023-01-06T05:34:27;101904.03;;;7.42;100.00
51297;BME280;37380;45.186;9.792;2023-01-06T05:37:00;101938.47;;;7.91;100.00
51297;BME280;37380;45.186;9.792;2023-01-06T05:39:54;101982.00;;;7.93;100.00
51297;BME280;37380;45.186;9.792;2023-01-06T05:42:23;101944.75;;;7.55;100.00
51297;BME280;37380;45.186;9.792;2023-01-06T05:44:50;101956.13;;;7.43;100.00
51297;BME280;37380;45.186;9.792;2023-01-06T05:47:17;101926.31;;;7.38;100.00
51297;BME280;37380;45.186;9.792;2023-01-06T05:49:45;101981.81;;;7.77;100.00
51297;BME280;37380;45.186;9.792;2023-01-06T05:52:12;101973.09;;;7.77;100.00
51297;BME280;37380;45.186;9.792;2023-01-06T05:54:39;101954.19;;;7.66;100.00
51297;BME280;37380;45.186;9.792;2023-01-06T05:57:06;101994.94;;;7.92;100.00
51297;BME280;37380;45.186;9.792;2023-01-06T05:59:35;101965.47;;;7.66;100.00
51297;BME280;37380;45.186;9.792;2023-01-06T06:02:08;101938.38;;;7.63;100.00
51297;BME280;37380;45.186;9.792;2023-01-06T06:05:03;101976.41;;;7.87;100.00
51297;BME280;37380;45.186;9.792;2023-01-06T06:07:30;101967.50;;;7.84;100.00
51297;BME280;37380;45.186;9.792;2023-01-06T06:10:05;101980.09;;;7.78;100.00
51297;BME280;37380;45.186;9.792;2023-01-06T06:13:11;102008.34;;;7.98;100.00
51297;BME280;37380;45.186;9.792;2023-01-06T06:16:07;101973.03;;;7.88;100.00
51297;BME280;37380;45.186;9.792;2023-01-06T06:18:36;101964.28;;;7.75;100.00
51297;BME280;37380;45.186;9.792;2023-01-06T06:21:15;101951.19;;;7.60;100.00
51297;BME280;37380;45.186;9.792;2023-01-06T06:23:42;101948.16;;;7.54;100.00
51297;BME280;37380;45.186;9.792;2023-01-06T06:26:10;102015.34;;;7.86;100.00
51297;BME280;37380;45.186;9.792;2023-01-06T06:28:38;101944.09;;;7.32;100.00
51297;BME280;37380;45.186;9.792;2023-01-06T06:31:16;102022.03;;;7.82;100.00
51297;BME280;37380;45.186;9.792;2023-01-06T06:34:12;102000.19;;;7.67;100.00
51297;BME280;37380;45.186;9.792;2023-01-06T06:36:39;101928.44;;;7.31;100.00
51297;BME280;37380;45.186;9.792;2023-01-06T06:39:08;101969.13;;;7.43;100.00
51297;BME280;37380;45.186;9.792;2023-01-06T06:41:36;102035.56;;;7.77;100.00
51297;BME280;37380;45.186;9.792;2023-01-06T06:44:03;102037.22;;;7.76;100.00
51297;BME280;37380;45.186;9.792;2023-01-06T06:46:31;101980.84;;;7.50;100.00
51297;BME280;37380;45.186;9.792;2023-01-06T06:48:59;101925.28;;;7.23;100.00
51297;BME280;37380;45.186;9.792;2023-01-06T06:51:28;102037.25;;;7.89;100.00
51297;BME280;37380;45.186;9.792;2023-01-06T06:53:56;102030.84;;;7.84;100.00
51297;BME280;37380;45.186;9.792;2023-01-06T06:56:24;102073.41;;;7.98;100.00
51297;BME280;37380;45.186;9.792;2023-01-06T06:58:51;102039.88;;;7.89;100.00
51297;BME280;37380;45.186;9.792;2023-01-06T07:01:19;102050.28;;;8.03;100.00
51297;BME280;37380;45.186;9.792;2023-01-06T07:03:47;102063.72;;;8.09;100.00
51297;BME280;37380;45.186;9.792;2023-01-06T07:06:22;102047.06;;;7.93;100.00
51297;BME280;37380;45.186;9.792;2023-01-06T07:08:52;102036.44;;;7.90;100.00
51297;BME280;37380;45.186;9.792;2023-01-06T07:11:26;102056.50;;;7.91;100.00
51297;BME280;37380;45.186;9.792;2023-01-06T07:14:22;102052.06;;;7.90;100.00
51297;BME280;37380;45.186;9.792;2023-01-06T07:16:49;102030.75;;;7.83;100.00
51297;BME280;37380;45.186;9.792;2023-01-06T07:19:16;102019.34;;;7.81;100.00
51297;BME280;37380;45.186;9.792;2023-01-06T07:21:46;102070.13;;;8.01;100.00
51297;BME280;37380;45.186;9.792;2023-01-06T07:24:13;102088.03;;;8.09;100.00
51297;BME280;37380;45.186;9.792;2023-01-06T07:26:50;102028.66;;;7.77;100.00
51297;BME280;37380;45.186;9.792;2023-01-06T07:29:52;102061.28;;;7.99;100.00
51297;BME280;37380;45.186;9.792;2023-01-06T07:32:50;102086.50;;;8.00;100.00
51297;BME280;37380;45.186;9.792;2023-01-06T07:35:18;101924.16;;;7.06;100.00
51297;BME280;37380;45.186;9.792;2023-01-06T07:37:47;102095.34;;;8.02;100.00
51297;BME280;37380;45.186;9.792;2023-01-06T07:40:19;101870.84;;;6.61;100.00
51297;BME280;37380;45.186;9.792;2023-01-06T07:42:47;101983.72;;;7.41;100.00
51297;BME280;37380;45.186;9.792;2023-01-06T07:45:28;101995.13;;;7.30;100.00
51297;BME280;37380;45.186;9.792;2023-01-06T07:48:02;101874.56;;;6.65;100.00
51297;BME280;37380;45.186;9.792;2023-01-06T07:50:31;102008.94;;;7.42;100.00
51297;BME280;37380;45.186;9.792;2023-01-06T07:53:00;102033.88;;;7.52;100.00
51297;BME280;37380;45.186;9.792;2023-01-06T07:55:29;101915.97;;;6.75;100.00
51297;BME280;37380;45.186;9.792;2023-01-06T07:58:03;102116.97;;;8.14;100.00
51297;BME280;37380;45.186;9.792;2023-01-06T08:00:33;102118.19;;;8.06;100.00
51297;BME280;37380;45.186;9.792;2023-01-06T08:03:05;102090.41;;;7.93;100.00
51297;BME280;37380;45.186;9.792;2023-01-06T08:05:37;101915.78;;;6.85;100.00
51297;BME280;37380;45.186;9.792;2023-01-06T08:08:14;101909.75;;;6.73;100.00
51297;BME280;37380;45.186;9.792;2023-01-06T08:10:51;101907.56;;;6.79;100.00
51297;BME280;37380;45.186;9.792;2023-01-06T08:13:57;101896.78;;;6.86;100.00
51297;BME280;37380;45.186;9.792;2023-01-06T08:16:54;101939.84;;;7.08;100.00
51297;BME280;37380;45.186;9.792;2023-01-06T08:19:30;101915.19;;;6.89;100.00
51297;BME280;37380;45.186;9.792;2023-01-06T08:22:08;101931.94;;;7.06;100.00
51297;BME280;37380;45.186;9.792;2023-01-06T08:25:14;101922.84;;;6.99;100.00
51297;BME280;37380;45.186;9.792;2023-01-06T08:27:47;101934.88;;;7.11;100.00
51297;BME280;37380;45.186;9.792;2023-01-06T08:30:23;102070.00;;;7.99;100.00
51297;BME280;37380;45.186;9.792;2023-01-06T08:33:00;101933.78;;;7.20;100.00
51297;BME280;37380;45.186;9.792;2023-01-06T08:35:30;101942.69;;;7.24;100.00
51297;BME280;37380;45.186;9.792;2023-01-06T08:38:01;102053.38;;;7.84;100.00
51297;BME280;37380;45.186;9.792;2023-01-06T08:40:32;101929.19;;;7.16;100.00
51297;BME280;37380;45.186;9.792;2023-01-06T08:43:08;101933.28;;;7.13;100.00
51297;BME280;37380;45.186;9.792;2023-01-06T08:45:41;102148.00;;;8.49;100.00
51297;BME280;37380;45.186;9.792;2023-01-06T08:48:08;102093.06;;;8.20;100.00
51297;BME280;37380;45.186;9.792;2023-01-06T08:50:40;102164.34;;;8.60;100.00
51297;BME280;37380;45.186;9.792;2023-01-06T08:53:08;102144.41;;;8.60;100.00
51297;BME280;37380;45.186;9.792;2023-01-06T08:55:40;102118.56;;;8.50;100.00
51297;BME280;37380;45.186;9.792;2023-01-06T08:58:08;102145.09;;;8.58;100.00
51297;BME280;37380;45.186;9.792;2023-01-06T09:00:38;102005.63;;;7.83;100.00
51297;BME280;37380;45.186;9.792;2023-01-06T09:03:06;102067.72;;;8.30;100.00
51297;BME280;37380;45.186;9.792;2023-01-06T09:05:33;102067.72;;;8.30;100.00
51297;BME280;37380;45.186;9.792;2023-01-06T09:08:00;102160.25;;;8.77;100.00
51297;BME280;37380;45.186;9.792;2023-01-06T09:10:39;102114.50;;;8.15;100.00
51297;BME280;37380;45.186;9.792;2023-01-06T09:13:33;102190.91;;;8.68;100.00
51297;BME280;37380;45.186;9.792;2023-01-06T09:16:28;102200.84;;;8.73;100.00
51297;BME280;37380;45.186;9.792;2023-01-06T09:19:22;102206.03;;;8.87;100.00
51297;BME280;37380;45.186;9.792;2023-01-06T09:21:49;102152.50;;;8.52;100.00
51297;BME280;37380;45.186;9.792;2023-01-06T09:24:18;102128.72;;;8.34;100.00
51297;BME280;37380;45.186;9.792;2023-01-06T09:26:45;102139.41;;;8.50;100.00
51297;BME280;37380;45.186;9.792;2023-01-06T09:29:12;102129.53;;;8.33;100.00
51297;BME280;37380;45.186;9.792;2023-01-06T09:31:39;102187.41;;;8.80;100.00
51297;BME280;37380;45.186;9.792;2023-01-06T09:34:06;102047.88;;;7.92;100.00
51297;BME280;37380;45.186;9.792;2023-01-06T09:36:33;102139.81;;;8.56;100.00
51297;BME280;37380;45.186;9.792;2023-01-06T09:39:00;102109.56;;;8.20;100.00
51297;BME280;37380;45.186;9.792;2023-01-06T09:44:29;102184.09;;;8.83;100.00
51297;BME280;37380;45.186;9.792;2023-01-06T09:47:00;102151.13;;;8.57;100.00
51297;BME280;37380;45.186;9.792;2023-01-06T09:52:03;102215.00;;;8.90;100.00
51297;BME280;37380;45.186;9.792;2023-01-06T09:54:36;102156.63;;;8.75;100.00
51297;BME280;37380;45.186;9.792;2023-01-06T09:57:16;102213.22;;;9.30;100.00
51297;BME280;37380;45.186;9.792;2023-01-06T09:59:48;102187.50;;;9.09;100.00
51297;BME280;37380;45.186;9.792;2023-01-06T10:02:35;102231.09;;;9.24;100.00
51297;BME280;37380;45.186;9.792;2023-01-06T10:05:18;102171.06;;;8.83;100.00
51297;BME280;37380;45.186;9.792;2023-01-06T10:07:55;102029.06;;;8.10;100.00
51297;BME280;37380;45.186;9.792;2023-01-06T10:26:22;102188.25;;;9.34;100.00
51297;BME280;37380;45.186;9.792;2023-01-06T10:28:53;102163.84;;;9.34;100.00
51297;BME280;37380;45.186;9.792;2023-01-06T10:31:26;102101.25;;;9.05;100.00
51297;BME280;37380;45.186;9.792;2023-01-06T10:33:56;102046.25;;;8.88;100.00
51297;BME280;37380;45.186;9.792;2023-01-06T10:36:31;102163.59;;;9.29;100.00
51297;BME280;37380;45.186;9.792;2023-01-06T10:39:00;102019.16;;;8.57;100.00
51297;BME280;37380;45.186;9.792;2023-01-06T10:41:54;102187.03;;;9.70;100.00
51297;BME280;37380;45.186;9.792;2023-01-06T10:44:43;102169.38;;;9.38;100.00
51297;BME280;37380;45.186;9.792;2023-01-06T10:47:27;102140.28;;;9.45;100.00
51297;BME280;37380;45.186;9.792;2023-01-06T10:49:55;102162.41;;;9.52;100.00
51297;BME280;37380;45.186;9.792;2023-01-06T10:52:24;102116.78;;;9.04;100.00
51297;BME280;37380;45.186;9.792;2023-01-06T10:54:58;102170.00;;;9.62;100.00
51297;BME280;37380;45.186;9.792;2023-01-06T10:57:33;102168.06;;;9.73;100.00
51297;BME280;37380;45.186;9.792;2023-01-06T11:02:47;102170.00;;;9.90;100.00
51297;BME280;37380;45.186;9.792;2023-01-06T11:05:26;102146.28;;;9.72;100.00
51297;BME280;37380;45.186;9.792;2023-01-06T11:08:22;102158.13;;;9.67;100.00
51297;BME280;37380;45.186;9.792;2023-01-06T11:10:56;102110.78;;;9.61;100.00
51297;BME280;37380;45.186;9.792;2023-01-06T11:14:15;102151.69;;;9.75;100.00
51297;BME280;37380;45.186;9.792;2023-01-06T11:17:14;102151.25;;;9.83;100.00
51297;BME280;37380;45.186;9.792;2023-01-06T11:19:44;102092.06;;;9.68;100.00
51297;BME280;37380;45.186;9.792;2023-01-06T11:22:32;102143.22;;;9.80;100.00
51297;BME280;37380;45.186;9.792;2023-01-06T11:25:02;102000.03;;;9.13;100.00
51297;BME280;37380;45.186;9.792;2023-01-06T11:27:30;101962.53;;;8.68;100.00
51297;BME280;37380;45.186;9.792;2023-01-06T11:29:57;102135.94;;;9.89;100.00
51297;BME280;37380;45.186;9.792;2023-01-06T11:32:26;102136.53;;;10.13;100.00
51297;BME280;37380;45.186;9.792;2023-01-06T11:34:57;102135.41;;;10.09;100.00
51297;BME280;37380;45.186;9.792;2023-01-06T11:40:19;102137.06;;;9.64;100.00
51297;BME280;37380;45.186;9.792;2023-01-06T11:42:54;102080.13;;;9.29;100.00
51297;BME280;37380;45.186;9.792;2023-01-06T11:45:40;102099.88;;;9.53;100.00
51297;BME280;37380;45.186;9.792;2023-01-06T11:48:17;102099.31;;;9.87;100.00
51297;BME280;37380;45.186;9.792;2023-01-06T11:51:03;101994.72;;;9.40;100.00
51297;BME280;37380;45.186;9.792;2023-01-06T11:53:59;102122.66;;;10.14;100.00
51297;BME280;37380;45.186;9.792;2023-01-06T11:56:27;102082.59;;;9.84;100.00
51297;BME280;37380;45.186;9.792;2023-01-06T12:01:43;102122.97;;;9.75;100.00
51297;BME280;37380;45.186;9.792;2023-01-06T12:04:47;102105.19;;;9.83;100.00
51297;BME280;37380;45.186;9.792;2023-01-06T12:09:57;102108.69;;;9.98;100.00
51297;BME280;37380;45.186;9.792;2023-01-06T12:13:00;102054.81;;;9.71;100.00
51297;BME280;37380;45.186;9.792;2023-01-06T12:16:04;102061.69;;;9.84;100.00
51297;BME280;37380;45.186;9.792;2023-01-06T12:18:36;102084.72;;;10.06;100.00
51297;BME280;37380;45.186;9.792;2023-01-06T12:21:12;101954.84;;;9.42;100.00
51297;BME280;37380;45.186;9.792;2023-01-06T12:23:43;102084.72;;;10.06;100.00
51297;BME280;37380;45.186;9.792;2023-01-06T12:26:15;102000.66;;;9.67;100.00
51297;BME280;37380;45.186;9.792;2023-01-06T12:28:46;102080.50;;;10.23;100.00
51297;BME280;37380;45.186;9.792;2023-01-06T12:31:40;102079.69;;;10.24;100.00
51297;BME280;37380;45.186;9.792;2023-01-06T12:34:18;102078.44;;;10.17;100.00
51297;BME280;37380;45.186;9.792;2023-01-06T12:37:21;102071.13;;;9.82;100.00
51297;BME280;37380;45.186;9.792;2023-01-06T12:40:47;102068.16;;;9.90;100.00
51297;BME280;37380;45.186;9.792;2023-01-06T12:43:26;102070.34;;;10.12;100.00
51297;BME280;37380;45.186;9.792;2023-01-06T12:46:04;102072.38;;;10.18;100.00
51297;BME280;37380;45.186;9.792;2023-01-06T12:51:45;102008.72;;;10.16;100.00
51297;BME280;37380;45.186;9.792;2023-01-06T12:54:52;102000.28;;;10.05;100.00
51297;BME280;37380;45.186;9.792;2023-01-06T12:58:28;102026.94;;;10.00;100.00
51297;BME280;37380;45.186;9.792;2023-01-06T13:01:06;102027.13;;;9.88;100.00
51297;BME280;37380;45.186;9.792;2023-01-06T13:15:59;101940.91;;;9.57;100.00
51297;BME280;37380;45.186;9.792;2023-01-06T13:18:37;102038.25;;;10.15;100.00
51297;BME280;37380;45.186;9.792;2023-01-06T13:21:10;102001.88;;;10.03;100.00
51297;BME280;37380;45.186;9.792;2023-01-06T13:40:20;102036.66;;;10.02;100.00
51297;BME280;37380;45.186;9.792;2023-01-06T13:45:29;101905.81;;;9.22;100.00
51297;BME280;37380;45.186;9.792;2023-01-06T13:48:00;102049.06;;;10.06;100.00
51297;BME280;37380;45.186;9.792;2023-01-06T13:50:41;102042.22;;;10.08;100.00
51297;BME280;37380;45.186;9.792;2023-01-06T13:53:43;102053.19;;;10.17;100.00
51297;BME280;37380;45.186;9.792;2023-01-06T13:56:40;102042.31;;;10.25;100.00
51297;BME280;37380;45.186;9.792;2023-01-06T14:01:49;102013.81;;;9.98;100.00
51297;BME280;37380;45.186;9.792;2023-01-06T14:07:06;101941.00;;;9.43;100.00
51297;BME280;37380;45.186;9.792;2023-01-06T14:13:42;101962.66;;;9.42;100.00
51297;BME280;37380;45.186;9.792;2023-01-06T14:16:15;101999.41;;;9.60;100.00
51297;BME280;37380;45.186;9.792;2023-01-06T14:18:49;102054.41;;;9.93;100.00
51297;BME280;37380;45.186;9.792;2023-01-06T14:21:22;102054.22;;;10.05;100.00
51297;BME280;37380;45.186;9.792;2023-01-06T14:27:04;101929.56;;;9.26;100.00
51297;BME280;37380;45.186;9.792;2023-01-06T14:30:03;102045.84;;;9.95;100.00
51297;BME280;37380;45.186;9.792;2023-01-06T14:36:00;102042.06;;;9.90;100.00
51297;BME280;37380;45.186;9.792;2023-01-06T14:38:34;102045.75;;;9.94;100.00
51297;BME280;37380;45.186;9.792;2023-01-06T14:41:21;102047.28;;;9.75;100.00
51297;BME280;37380;45.186;9.792;2023-01-06T14:44:46;101970.03;;;9.20;100.00
51297;BME280;37380;45.186;9.792;2023-01-06T14:47:49;102056.44;;;9.54;100.00
51297;BME280;37380;45.186;9.792;2023-01-06T14:50:31;102048.63;;;9.26;100.00
51297;BME280;37380;45.186;9.792;2023-01-06T14:53:31;102057.13;;;9.37;100.00
51297;BME280;37380;45.186;9.792;2023-01-06T14:56:02;101967.81;;;8.98;100.00
51297;BME280;37380;45.186;9.792;2023-01-06T14:58:33;102004.97;;;9.37;100.00
51297;BME280;37380;45.186;9.792;2023-01-06T15:01:04;102058.78;;;9.64;100.00
51297;BME280;37380;45.186;9.792;2023-01-06T15:03:33;102021.94;;;9.45;100.00
51297;BME280;37380;45.186;9.792;2023-01-06T15:06:22;102049.25;;;9.80;100.00
51297;BME280;37380;45.186;9.792;2023-01-06T15:08:50;101970.47;;;9.27;100.00
51297;BME280;37380;45.186;9.792;2023-01-06T15:11:27;102057.63;;;9.74;100.00
51297;BME280;37380;45.186;9.792;2023-01-06T15:14:32;102053.41;;;9.91;100.00
51297;BME280;37380;45.186;9.792;2023-01-06T15:17:27;102055.53;;;9.68;100.00
51297;BME280;37380;45.186;9.792;2023-01-06T15:19:54;102043.13;;;9.64;100.00
51297;BME280;37380;45.186;9.792;2023-01-06T15:22:23;102006.34;;;9.17;100.00
51297;BME280;37380;45.186;9.792;2023-01-06T15:24:51;101928.50;;;8.80;100.00
51297;BME280;37380;45.186;9.792;2023-01-06T15:27:19;101897.41;;;8.55;100.00
51297;BME280;37380;45.186;9.792;2023-01-06T15:29:51;101996.63;;;9.14;100.00
51297;BME280;37380;45.186;9.792;2023-01-06T15:32:26;101998.25;;;9.12;100.00
51297;BME280;37380;45.186;9.792;2023-01-06T15:35:30;102055.44;;;9.52;100.00
51297;BME280;37380;45.186;9.792;2023-01-06T15:40:38;101999.13;;;9.13;100.00
51297;BME280;37380;45.186;9.792;2023-01-06T15:43:45;102070.22;;;9.51;100.00
51297;BME280;37380;45.186;9.792;2023-01-06T15:46:39;102048.47;;;9.66;100.00
51297;BME280;37380;45.186;9.792;2023-01-06T15:49:34;101974.78;;;9.12;100.00